createdAt,value
2023-01-01T00:01:22.493Z,96420.09
2023-01-01T00:03:53.245Z,96429.41
2023-01-01T00:06:19.990Z,96432.91
2023-01-01T00:08:47.552Z,96428.19
2023-01-01T00:11:14.819Z,96440.88
2023-01-01T00:13:42.446Z,96447.41
2023-01-01T00:16:12.458Z,96392.22
2023-01-01T00:18:39.951Z,96444.75
2023-01-01T00:21:10.072Z,96439.28
2023-01-01T00:23:36.729Z,96450.88
2023-01-01T00:26:10.576Z,96444.75
2023-01-01T00:28:37.369Z,96447.09
2023-01-01T00:31:13.338Z,96450.25
2023-01-01T00:33:40.485Z,96428.19
2023-01-01T00:36:12.199Z,96437.09
2023-01-01T00:38:39.443Z,96458.53
2023-01-01T00:41:06.094Z,96431.38
2023-01-01T00:43:32.935Z,96457.75
2023-01-01T00:45:59.636Z,96458.44
2023-01-01T00:48:26.467Z,96454.16
2023-01-01T00:50:53.762Z,96461.19
2023-01-01T00:53:21.661Z,96470.06
2023-01-01T00:55:49.880Z,96464.34
2023-01-01T00:58:18.013Z,96434.53
2023-01-01T01:00:45.699Z,96460.06
2023-01-01T01:03:28.293Z,96451.66
2023-01-01T01:06:02.199Z,96450.91
2023-01-01T01:08:31.514Z,96460.63
2023-01-01T01:11:15.294Z,96461.41
2023-01-01T01:13:43.876Z,96469.88
2023-01-01T01:16:13.520Z,96463.31
2023-01-01T01:18:40.824Z,96441.28
2023-01-01T01:21:07.963Z,96396.81
2023-01-01T01:23:35.043Z,96438.13
2023-01-01T01:26:18.797Z,96426.03
2023-01-01T01:28:49.662Z,96433.75
2023-01-01T01:31:17.183Z,96443.81
2023-01-01T01:33:45.135Z,96416.38
2023-01-01T01:36:12.512Z,96426.06
2023-01-01T01:38:39.218Z,96449.19
2023-01-01T01:41:06.613Z,96445.81
2023-01-01T01:43:33.278Z,96454.34
2023-01-01T01:46:06.159Z,96451.25
2023-01-01T01:48:39.519Z,96440.72
2023-01-01T01:51:07.091Z,96453.50
2023-01-01T01:53:38.016Z,96448.94
2023-01-01T01:56:08.712Z,96422.66
2023-01-01T01:58:35.358Z,96443.09
2023-01-01T02:01:02.206Z,96443.44
2023-01-01T02:03:41.442Z,96438.44
2023-01-01T02:06:08.756Z,96453.03
2023-01-01T02:08:36.150Z,96427.03
2023-01-01T02:11:03.491Z,96449.81
2023-01-01T02:13:30.655Z,96435.03
2023-01-01T02:16:13.119Z,96454.66
2023-01-01T02:18:42.559Z,96451.16
2023-01-01T02:21:32.035Z,96444.09
2023-01-01T02:24:20.933Z,96446.75
2023-01-01T02:26:58.157Z,96459.19
2023-01-01T02:29:40.290Z,96421.72
2023-01-01T02:32:19.332Z,96450.88
2023-01-01T02:34:58.180Z,96446.25
2023-01-01T02:37:28.602Z,96431.50
2023-01-01T02:39:58.929Z,96447.41
2023-01-01T02:42:28.659Z,96459.06
2023-01-01T02:44:59.263Z,96425.81
2023-01-01T02:47:25.918Z,96450.53
2023-01-01T02:50:01.118Z,96454.28
2023-01-01T02:52:53.256Z,96409.91
2023-01-01T02:55:29.485Z,96459.28
2023-01-01T02:58:45.518Z,96436.69
2023-01-01T03:01:39.884Z,96455.88
2023-01-01T03:04:34.388Z,96434.28
2023-01-01T03:07:28.972Z,96441.66
2023-01-01T03:10:02.435Z,96439.00
2023-01-01T03:12:43.627Z,96417.09
2023-01-01T03:15:44.279Z,96439.00
2023-01-01T03:18:37.408Z,96458.97
2023-01-01T03:21:07.219Z,96446.16
2023-01-01T03:23:54.942Z,96452.31
2023-01-01T03:26:25.393Z,96462.97
2023-01-01T03:28:57.687Z,96455.13
2023-01-01T03:31:26.157Z,96456.13
2023-01-01T03:34:15.148Z,96445.97
2023-01-01T03:36:46.654Z,96424.31
2023-01-01T03:39:20.512Z,96442.09
2023-01-01T03:41:56.392Z,96424.81
2023-01-01T03:44:58.090Z,96450.06
2023-01-01T03:47:25.073Z,96449.09
2023-01-01T03:49:51.897Z,96445.44
2023-01-01T03:52:32.355Z,96455.91
2023-01-01T03:55:04.385Z,96458.31
2023-01-01T03:57:44.476Z,96454.88
2023-01-01T04:00:17.453Z,96460.69
2023-01-01T04:02:50.413Z,96460.63
2023-01-01T04:05:18.841Z,96418.53
2023-01-01T04:10:17.934Z,96465.09
2023-01-01T04:12:53.426Z,96426.88
2023-01-01T04:15:23.119Z,96450.69
2023-01-01T04:17:50.083Z,96448.06
2023-01-01T04:20:17.701Z,96443.97
2023-01-01T04:22:44.632Z,96455.78
2023-01-01T04:25:12.099Z,96429.28
2023-01-01T04:27:39.768Z,96458.41
2023-01-01T04:30:09.688Z,96452.00
2023-01-01T04:32:36.368Z,96460.75
2023-01-01T04:35:03.163Z,96457.66
2023-01-01T04:37:29.787Z,96460.25
2023-01-01T04:39:56.461Z,96447.75
2023-01-01T04:42:23.069Z,96441.53
2023-01-01T04:44:49.760Z,96455.03
2023-01-01T04:47:16.423Z,96457.56
2023-01-01T04:49:43.138Z,96449.41
2023-01-01T04:52:09.767Z,96441.69
2023-01-01T04:54:36.542Z,96445.97
2023-01-01T04:57:03.203Z,96456.13
2023-01-01T04:59:31.182Z,96455.38
2023-01-01T05:01:58.886Z,96463.59
2023-01-01T05:04:26.503Z,96465.22
2023-01-01T05:06:53.152Z,96448.84
2023-01-01T05:09:19.955Z,96471.88
2023-01-01T05:11:46.699Z,96482.59
2023-01-01T05:14:13.445Z,96451.78
2023-01-01T05:16:40.647Z,96483.84
2023-01-01T05:19:09.064Z,96475.28
2023-01-01T05:21:38.989Z,96477.56
2023-01-01T05:24:08.255Z,96456.97
2023-01-01T05:26:37.766Z,96459.31
2023-01-01T05:29:10.349Z,96436.84
2023-01-01T05:31:40.551Z,96485.06
2023-01-01T05:36:38.512Z,96477.25
2023-01-01T05:39:06.884Z,96480.59
2023-01-01T05:41:36.492Z,96481.69
2023-01-01T05:44:05.356Z,96480.00
2023-01-01T05:46:32.667Z,96491.63
2023-01-01T05:49:01.008Z,96477.09
2023-01-01T05:51:29.467Z,96491.56
2023-01-01T05:53:56.937Z,96486.50
2023-01-01T05:56:24.408Z,96501.59
2023-01-01T05:58:51.177Z,96503.53
2023-01-01T06:01:26.803Z,96485.81
2023-01-01T06:03:55.278Z,96468.63
2023-01-01T06:06:25.250Z,96493.72
2023-01-01T06:08:54.234Z,96481.44
2023-01-01T06:11:21.510Z,96483.41
2023-01-01T06:13:48.177Z,96477.63
2023-01-01T06:16:15.283Z,96494.31
2023-01-01T06:18:41.917Z,96500.00
2023-01-01T06:21:20.216Z,96492.59
2023-01-01T06:23:47.388Z,96489.59
2023-01-01T06:26:17.330Z,96510.69
2023-01-01T06:28:45.140Z,96496.13
2023-01-01T06:31:13.549Z,96516.03
2023-01-01T06:33:40.928Z,96484.03
2023-01-01T06:36:10.451Z,96507.28
2023-01-01T06:38:39.811Z,96503.19
2023-01-01T06:41:10.619Z,96510.13
2023-01-01T06:43:37.992Z,96510.56
2023-01-01T06:46:31.207Z,96512.91
2023-01-01T06:49:04.758Z,96475.31
2023-01-01T06:51:36.353Z,96503.34
2023-01-01T06:54:04.647Z,96524.34
2023-01-01T06:56:32.466Z,96521.56
2023-01-01T06:59:00.056Z,96513.38
2023-01-01T07:01:29.809Z,96533.66
2023-01-01T07:03:59.647Z,96516.13
2023-01-01T07:06:28.163Z,96525.91
2023-01-01T07:08:54.916Z,96488.63
2023-01-01T07:11:22.346Z,96528.06
2023-01-01T07:13:48.929Z,96527.31
2023-01-01T07:16:15.892Z,96529.47
2023-01-01T07:18:42.832Z,96524.09
2023-01-01T07:21:32.225Z,96529.09
2023-01-01T07:24:00.792Z,96535.66
2023-01-01T07:26:29.317Z,96510.66
2023-01-01T07:29:02.766Z,96521.53
2023-01-01T07:31:33.387Z,96512.78
2023-01-01T07:34:00.089Z,96532.00
2023-01-01T07:36:26.807Z,96534.97
2023-01-01T07:38:53.807Z,96548.88
2023-01-01T07:41:20.506Z,96539.19
2023-01-01T07:43:47.171Z,96539.66
2023-01-01T07:46:16.500Z,96549.75
2023-01-01T07:48:43.529Z,96549.06
2023-01-01T07:51:10.116Z,96536.84
2023-01-01T07:53:36.792Z,96535.19
2023-01-01T07:56:03.482Z,96538.53
2023-01-01T07:58:30.041Z,96545.63
2023-01-01T08:00:56.774Z,96535.75
2023-01-01T08:03:23.522Z,96543.28
2023-01-01T08:05:59.468Z,96543.28
2023-01-01T08:08:26.118Z,96540.75
2023-01-01T08:10:52.682Z,96559.44
2023-01-01T08:13:19.281Z,96548.44
2023-01-01T08:15:45.978Z,96538.25
2023-01-01T08:18:12.610Z,96550.66
2023-01-01T08:20:39.248Z,96560.72
2023-01-01T08:23:07.671Z,96557.25
2023-01-01T08:25:35.005Z,96558.78
2023-01-01T08:28:01.646Z,96568.84
2023-01-01T08:30:28.438Z,96549.22
2023-01-01T08:32:55.168Z,96556.53
2023-01-01T08:35:21.766Z,96565.78
2023-01-01T08:37:48.518Z,96564.84
2023-01-01T08:40:15.162Z,96552.88
2023-01-01T08:42:41.794Z,96560.28
2023-01-01T08:45:08.807Z,96552.63
2023-01-01T08:47:35.565Z,96566.94
2023-01-01T08:50:02.266Z,96567.38
2023-01-01T08:52:28.958Z,96568.59
2023-01-01T08:54:55.597Z,96553.59
2023-01-01T08:57:22.341Z,96558.28
2023-01-01T08:59:49.075Z,96562.19
2023-01-01T09:02:15.867Z,96560.31
2023-01-01T09:04:42.571Z,96555.31
2023-01-01T09:07:09.200Z,96562.63
2023-01-01T09:09:36.110Z,96548.00
2023-01-01T09:12:08.336Z,96529.88
2023-01-01T09:14:35.388Z,96523.72
2023-01-01T09:17:03.218Z,96534.91
2023-01-01T09:19:30.001Z,96513.31
2023-01-01T09:21:57.157Z,96501.31
2023-01-01T09:24:24.170Z,96523.31
2023-01-01T09:26:50.836Z,96515.91
2023-01-01T09:29:21.830Z,96513.09
2023-01-01T09:31:49.501Z,96506.13
2023-01-01T09:34:18.084Z,96511.41
2023-01-01T09:36:45.640Z,96504.69
2023-01-01T09:39:14.345Z,96496.06
2023-01-01T09:42:07.827Z,96510.19
2023-01-01T09:44:55.844Z,96501.25
2023-01-01T09:47:30.392Z,96487.03
2023-01-01T09:50:03.483Z,96498.19
2023-01-01T09:52:40.564Z,96486.69
2023-01-01T09:55:21.198Z,96487.06
2023-01-01T09:57:51.122Z,96497.13
2023-01-01T10:00:19.558Z,96481.28
2023-01-01T10:03:28.772Z,96488.44
2023-01-01T10:06:10.296Z,96473.66
2023-01-01T10:08:55.728Z,96480.53
2023-01-01T10:11:28.347Z,96463.69
2023-01-01T10:13:59.508Z,96473.16
2023-01-01T10:16:37.487Z,96451.72
2023-01-01T10:19:27.148Z,96476.50
2023-01-01T10:22:01.169Z,96466.00
2023-01-01T10:24:36.945Z,96474.31
2023-01-01T10:27:05.584Z,96449.50
2023-01-01T10:29:42.788Z,96463.00
2023-01-01T10:32:20.498Z,96469.06
2023-01-01T10:34:49.046Z,96448.25
2023-01-01T10:37:15.909Z,96441.56
2023-01-01T10:39:43.575Z,96442.34
2023-01-01T10:42:14.916Z,96442.97
2023-01-01T10:44:42.357Z,96422.94
2023-01-01T10:47:24.484Z,96438.44
2023-01-01T10:50:04.538Z,96433.03
2023-01-01T10:52:36.029Z,96403.47
2023-01-01T10:55:03.427Z,96401.88
2023-01-01T10:57:35.984Z,96397.22
2023-01-01T11:00:20.634Z,96396.75
2023-01-01T11:02:47.577Z,96392.47
2023-01-01T11:05:22.194Z,96408.19
2023-01-01T11:07:50.074Z,96405.66
2023-01-01T11:10:22.738Z,96383.50
2023-01-01T11:13:07.014Z,96397.25
2023-01-01T11:15:36.433Z,96394.19
2023-01-01T11:18:12.606Z,96386.78
2023-01-01T11:20:40.303Z,96379.47
2023-01-01T11:23:20.484Z,96381.88
2023-01-01T11:26:03.095Z,96371.06
2023-01-01T11:28:31.950Z,96379.31
2023-01-01T11:31:00.334Z,96378.13
2023-01-01T11:33:28.536Z,96373.53
2023-01-01T11:35:56.644Z,96360.38
2023-01-01T11:38:29.822Z,96367.28
2023-01-01T11:41:03.917Z,96355.97
2023-01-01T11:43:38.680Z,96354.59
2023-01-01T11:46:12.273Z,96351.53
2023-01-01T11:48:43.064Z,96337.91
2023-01-01T11:51:27.874Z,96357.56
2023-01-01T11:54:10.187Z,96353.41
2023-01-01T11:56:37.523Z,96339.59
2023-01-01T11:59:14.959Z,96334.44
2023-01-01T12:01:41.552Z,96348.88
2023-01-01T12:04:17.896Z,96338.13
2023-01-01T12:07:06.063Z,96351.59
2023-01-01T12:09:37.661Z,96329.75
2023-01-01T12:12:18.455Z,96340.22
2023-01-01T12:14:55.476Z,96324.28
2023-01-01T12:17:33.329Z,96328.03
2023-01-01T12:20:03.453Z,96334.13
2023-01-01T12:22:30.418Z,96328.25
2023-01-01T12:24:59.191Z,96325.78
2023-01-01T12:27:49.183Z,96337.22
2023-01-01T12:31:00.797Z,96328.78
2023-01-01T12:33:46.234Z,96329.03
2023-01-01T12:36:22.272Z,96322.38
2023-01-01T12:38:51.543Z,96319.22
2023-01-01T12:41:18.179Z,96328.72
2023-01-01T12:44:06.693Z,96326.31
2023-01-01T12:47:01.295Z,96329.47
2023-01-01T12:49:59.809Z,96320.19
2023-01-01T12:52:35.187Z,96316.91
2023-01-01T12:55:13.599Z,96307.59
2023-01-01T12:57:47.597Z,96300.38
2023-01-01T13:00:17.031Z,96325.19
2023-01-01T13:02:52.675Z,96311.97
2023-01-01T13:05:42.088Z,96300.84
2023-01-01T13:08:08.828Z,96284.56
2023-01-01T13:10:45.124Z,96308.25
2023-01-01T13:13:15.293Z,96296.97
2023-01-01T13:15:44.188Z,96315.06
2023-01-01T13:18:13.929Z,96307.53
2023-01-01T13:20:42.097Z,96311.44
2023-01-01T13:23:38.247Z,96313.69
2023-01-01T13:26:23.118Z,96298.66
2023-01-01T13:28:58.840Z,96304.59
2023-01-01T13:31:41.183Z,96305.44
2023-01-01T13:34:26.616Z,96299.97
2023-01-01T13:37:17.446Z,96304.47
2023-01-01T13:39:54.431Z,96295.50
2023-01-01T13:42:52.574Z,96312.00
2023-01-01T13:46:10.064Z,96305.16
2023-01-01T13:48:30.233Z,96300.22
2023-01-01T13:52:04.111Z,96299.78
2023-01-01T13:54:45.037Z,96311.06
2023-01-01T13:57:48.319Z,96314.88
2023-01-01T14:00:21.497Z,96317.56
2023-01-01T14:03:08.694Z,96318.63
2023-01-01T14:05:40.257Z,96322.81
2023-01-01T14:08:13.023Z,96305.97
2023-01-01T14:10:40.002Z,96294.16
2023-01-01T14:13:06.630Z,96313.63
2023-01-01T14:15:39.868Z,96313.00
2023-01-01T14:18:18.006Z,96308.19
2023-01-01T14:20:50.830Z,96307.06
2023-01-01T14:23:24.821Z,96297.97
2023-01-01T14:25:51.801Z,96313.72
2023-01-01T14:28:32.061Z,96310.41
2023-01-01T14:31:05.581Z,96314.44
2023-01-01T14:33:37.372Z,96314.31
2023-01-01T14:36:06.588Z,96301.72
2023-01-01T14:38:35.834Z,96323.13
2023-01-01T14:41:12.654Z,96319.38
2023-01-01T14:43:41.563Z,96310.06
2023-01-01T14:46:13.705Z,96300.59
2023-01-01T14:48:43.436Z,96321.41
2023-01-01T14:51:15.333Z,96314.03
2023-01-01T14:53:43.995Z,96310.38
2023-01-01T14:56:10.791Z,96317.63
2023-01-01T14:58:40.789Z,96309.69
2023-01-01T15:01:32.738Z,96319.16
2023-01-01T15:04:03.027Z,96322.38
2023-01-01T15:06:30.708Z,96315.56
2023-01-01T15:08:57.899Z,96324.22
2023-01-01T15:11:28.985Z,96330.00
2023-01-01T15:14:01.479Z,96333.06
2023-01-01T15:16:33.214Z,96321.22
2023-01-01T15:19:17.224Z,96314.09
2023-01-01T15:21:44.069Z,96336.50
2023-01-01T15:24:22.295Z,96314.41
2023-01-01T15:27:00.664Z,96327.69
2023-01-01T15:29:37.425Z,96325.28
2023-01-01T15:32:10.447Z,96311.47
2023-01-01T15:34:46.138Z,96327.31
2023-01-01T15:37:15.877Z,96323.53
2023-01-01T15:39:55.718Z,96331.78
2023-01-01T15:42:29.977Z,96337.34
2023-01-01T15:44:56.560Z,96337.06
2023-01-01T15:47:26.824Z,96345.22
2023-01-01T15:50:21.965Z,96273.72
2023-01-01T15:53:01.655Z,96333.88
2023-01-01T15:55:33.775Z,96336.50
2023-01-01T15:58:02.871Z,96335.09
2023-01-01T16:00:33.244Z,96343.97
2023-01-01T16:03:18.309Z,96297.28
2023-01-01T16:05:50.813Z,96328.75
2023-01-01T16:08:17.742Z,96312.19
2023-01-01T16:10:45.783Z,96352.06
2023-01-01T16:13:13.030Z,96285.28
2023-01-01T16:15:58.952Z,96342.56
2023-01-01T16:18:33.971Z,96347.06
2023-01-01T16:21:02.619Z,96337.88
2023-01-01T16:23:29.349Z,96342.66
2023-01-01T16:25:56.143Z,96345.13
2023-01-01T16:28:23.668Z,96336.38
2023-01-01T16:30:50.524Z,96349.88
2023-01-01T16:33:19.432Z,96337.91
2023-01-01T16:35:46.825Z,96342.66
2023-01-01T16:38:13.565Z,96355.06
2023-01-01T16:40:40.288Z,96357.78
2023-01-01T16:43:16.132Z,96343.72
2023-01-01T16:45:43.847Z,96360.19
2023-01-01T16:48:10.573Z,96353.69
2023-01-01T16:50:37.208Z,96337.44
2023-01-01T16:53:03.908Z,96356.75
2023-01-01T16:55:30.920Z,96342.56
2023-01-01T16:58:21.075Z,96341.97
2023-01-01T17:00:45.473Z,96363.19
2023-01-01T17:03:12.646Z,96364.44
2023-01-01T17:05:44.093Z,96344.63
2023-01-01T17:08:11.570Z,96351.94
2023-01-01T17:10:38.235Z,96375.28
2023-01-01T17:13:04.914Z,96371.09
2023-01-01T17:15:32.404Z,96370.97
2023-01-01T17:17:59.390Z,96371.66
2023-01-01T17:20:26.545Z,96376.34
2023-01-01T17:22:53.642Z,96375.63
2023-01-01T17:25:20.630Z,96379.91
2023-01-01T17:27:47.764Z,96377.66
2023-01-01T17:30:15.038Z,96359.25
2023-01-01T17:32:41.774Z,96368.28
2023-01-01T17:35:08.716Z,96378.34
2023-01-01T17:37:35.596Z,96379.88
2023-01-01T17:40:02.316Z,96386.38
2023-01-01T17:42:29.821Z,96380.56
2023-01-01T17:44:56.529Z,96381.28
2023-01-01T17:47:25.500Z,96358.94
2023-01-01T17:49:56.050Z,96376.31
2023-01-01T17:52:22.729Z,96389.03
2023-01-01T17:54:49.592Z,96382.06
2023-01-01T17:57:17.167Z,96377.06
2023-01-01T17:59:43.984Z,96377.03
2023-01-01T18:02:14.267Z,96388.59
2023-01-01T18:04:41.737Z,96391.31
2023-01-01T18:07:08.451Z,96374.44
2023-01-01T18:09:38.045Z,96392.97
2023-01-01T18:12:05.967Z,96383.78
2023-01-01T18:14:32.941Z,96384.50
2023-01-01T18:16:59.650Z,96376.50
2023-01-01T18:19:27.760Z,96358.00
2023-01-01T18:21:54.537Z,96379.47
2023-01-01T18:24:21.368Z,96380.25
2023-01-01T18:26:48.115Z,96390.69
2023-01-01T18:29:14.939Z,96389.19
2023-01-01T18:31:41.864Z,96341.78
2023-01-01T18:34:10.796Z,96361.50
2023-01-01T18:36:37.443Z,96360.78
2023-01-01T18:39:20.801Z,96364.28
2023-01-01T18:42:06.096Z,96387.81
2023-01-01T18:44:34.122Z,96362.41
2023-01-01T18:47:06.861Z,96382.44
2023-01-01T18:49:38.188Z,96381.28
2023-01-01T18:52:09.188Z,96387.06
2023-01-01T18:54:36.070Z,96380.91
2023-01-01T18:57:14.368Z,96381.34
2023-01-01T18:59:41.328Z,96376.00
2023-01-01T19:02:38.329Z,96383.28
2023-01-01T19:05:33.761Z,96378.72
2023-01-01T19:08:06.383Z,96375.56
2023-01-01T19:11:13.564Z,96368.59
2023-01-01T19:13:40.584Z,96370.19
2023-01-01T19:16:12.607Z,96371.41
2023-01-01T19:18:45.653Z,96350.66
2023-01-01T19:21:12.933Z,96375.69
2023-01-01T19:23:54.911Z,96364.13
2023-01-01T19:26:43.224Z,96376.44
2023-01-01T19:29:20.119Z,96382.63
2023-01-01T19:31:55.334Z,96349.09
2023-01-01T19:34:22.623Z,96362.22
2023-01-01T19:36:50.048Z,96379.94
2023-01-01T19:39:17.184Z,96362.94
2023-01-01T19:41:44.471Z,96374.59
2023-01-01T19:44:11.378Z,96380.06
2023-01-01T19:46:38.155Z,96385.84
2023-01-01T19:49:04.889Z,96396.25
2023-01-01T19:51:31.647Z,96390.47
2023-01-01T19:53:58.264Z,96372.72
2023-01-01T19:56:24.973Z,96382.72
2023-01-01T19:58:51.793Z,96382.72
2023-01-01T20:01:19.000Z,96397.06
2023-01-01T20:03:55.357Z,96368.91
2023-01-01T20:06:23.492Z,96395.16
2023-01-01T20:08:50.454Z,96378.16
2023-01-01T20:11:17.461Z,96370.47
2023-01-01T20:13:44.190Z,96380.88
2023-01-01T20:16:11.125Z,96396.28
2023-01-01T20:18:37.983Z,96383.97
2023-01-01T20:21:26.467Z,96395.91
2023-01-01T20:23:53.933Z,96394.38
2023-01-01T20:26:20.986Z,96394.38
2023-01-01T20:29:06.344Z,96395.88
2023-01-01T20:31:33.103Z,96387.03
2023-01-01T20:34:00.125Z,96386.66
2023-01-01T20:36:45.720Z,96378.53
2023-01-01T20:39:12.686Z,96387.81
2023-01-01T20:41:39.348Z,96392.41
2023-01-01T20:44:05.989Z,96398.56
2023-01-01T20:46:32.685Z,96409.00
2023-01-01T20:48:59.895Z,96405.53
2023-01-01T20:51:26.649Z,96406.31
2023-01-01T20:53:53.553Z,96397.81
2023-01-01T20:56:20.202Z,96399.00
2023-01-01T20:58:50.275Z,96364.25
2023-01-01T21:01:18.379Z,96407.44
2023-01-01T21:03:45.179Z,96396.25
2023-01-01T21:06:12.159Z,96388.59
2023-01-01T21:08:38.826Z,96368.16
2023-01-01T21:11:05.693Z,96402.47
2023-01-01T21:13:32.550Z,96400.56
2023-01-01T21:16:13.994Z,96396.72
2023-01-01T21:18:41.265Z,96406.38
2023-01-01T21:21:17.878Z,96413.34
2023-01-01T21:23:44.578Z,96402.94
2023-01-01T21:26:23.222Z,96413.34
2023-01-01T21:28:50.033Z,96406.78
2023-01-01T21:31:17.158Z,96406.00
2023-01-01T21:33:45.537Z,96388.25
2023-01-01T21:36:17.960Z,96410.63
2023-01-01T21:38:44.752Z,96415.28
2023-01-01T21:41:19.169Z,96372.06
2023-01-01T21:43:50.445Z,96390.97
2023-01-01T21:46:18.575Z,96404.44
2023-01-01T21:48:58.353Z,96387.50
2023-01-01T21:51:27.431Z,96405.63
2023-01-01T21:54:17.870Z,96402.91
2023-01-01T21:57:15.286Z,96403.66
2023-01-01T21:59:51.980Z,96412.13
2023-01-01T22:02:36.073Z,96409.06
2023-01-01T22:05:20.454Z,96409.78
2023-01-01T22:08:02.864Z,96377.06
2023-01-01T22:10:34.547Z,96416.38
2023-01-01T22:13:01.863Z,96402.84
2023-01-01T22:15:35.007Z,96390.47
2023-01-01T22:18:23.133Z,96419.78
2023-01-01T22:20:50.465Z,96414.38
2023-01-01T22:23:20.052Z,96412.44
2023-01-01T22:25:47.735Z,96422.06
2023-01-01T22:28:21.177Z,96411.63
2023-01-01T22:30:50.321Z,96421.25
2023-01-01T22:33:19.298Z,96412.38
2023-01-01T22:35:46.186Z,96389.56
2023-01-01T22:38:18.707Z,96416.97
2023-01-01T22:40:49.169Z,96396.84
2023-01-01T22:43:19.393Z,96406.91
2023-01-01T22:45:48.721Z,96409.56
2023-01-01T22:48:37.680Z,96408.78
2023-01-01T22:51:27.368Z,96401.09
2023-01-01T22:53:54.020Z,96414.13
2023-01-01T22:56:21.580Z,96394.44
2023-01-01T22:58:53.065Z,96349.97
2023-01-01T23:01:23.459Z,96382.13
2023-01-01T23:03:50.344Z,96401.06
2023-01-01T23:06:18.448Z,96385.63
2023-01-01T23:08:45.455Z,96380.25
2023-01-01T23:11:12.094Z,96368.22
2023-01-01T23:13:57.639Z,96353.94
2023-01-01T23:16:24.427Z,96363.94
2023-01-01T23:18:51.176Z,96371.69
2023-01-01T23:21:26.006Z,96396.75
2023-01-01T23:23:54.948Z,96394.06
2023-01-01T23:26:21.897Z,96385.59
2023-01-01T23:28:48.622Z,96370.25
2023-01-01T23:31:22.743Z,96356.34
2023-01-01T23:33:51.869Z,96372.94
2023-01-01T23:36:19.582Z,96374.47
2023-01-01T23:38:46.413Z,96373.66
2023-01-01T23:41:13.219Z,96397.13
2023-01-01T23:43:43.624Z,96363.00
2023-01-01T23:46:15.304Z,96380.28
2023-01-01T23:48:46.557Z,96371.25
2023-01-01T23:51:14.133Z,96401.38
2023-01-01T23:53:41.310Z,96397.84
2023-01-01T23:56:08.172Z,96400.44
2023-01-01T23:58:34.899Z,96391.88
